sensor_id;sensor_type;location;lat;lon;timestamp;temperature;humidity
18047;DHT22;9148;51.454;13.862;2022-07-30T00:01:29;22.10;52.50
18047;DHT22;9148;51.454;13.862;2022-07-30T00:03:54;22.00;52.50
18047;DHT22;9148;51.454;13.862;2022-07-30T00:06:20;22.00;52.60
18047;DHT22;9148;51.454;13.862;2022-07-30T00:08:46;22.00;52.70
18047;DHT22;9148;51.454;13.862;2022-07-30T00:11:11;21.90;52.80
18047;DHT22;9148;51.454;13.862;2022-07-30T00:13:37;21.90;52.80
18047;DHT22;9148;51.454;13.862;2022-07-30T00:16:03;21.90;53.00
18047;DHT22;9148;51.454;13.862;2022-07-30T00:18:29;21.90;53.00
18047;DHT22;9148;51.454;13.862;2022-07-30T00:20:54;21.80;53.10
18047;DHT22;9148;51.454;13.862;2022-07-30T00:23:20;21.80;53.10
18047;DHT22;9148;51.454;13.862;2022-07-30T00:25:46;21.80;53.20
18047;DHT22;9148;51.454;13.862;2022-07-30T00:28:11;21.80;53.30
18047;DHT22;9148;51.454;13.862;2022-07-30T00:30:37;21.70;53.40
18047;DHT22;9148;51.454;13.862;2022-07-30T00:33:04;21.70;53.40
18047;DHT22;9148;51.454;13.862;2022-07-30T00:35:30;21.70;53.50
18047;DHT22;9148;51.454;13.862;2022-07-30T00:37:56;21.60;53.80
18047;DHT22;9148;51.454;13.862;2022-07-30T00:40:22;21.60;53.70
18047;DHT22;9148;51.454;13.862;2022-07-30T00:42:48;21.60;53.60
18047;DHT22;9148;51.454;13.862;2022-07-30T00:45:15;21.60;53.70
18047;DHT22;9148;51.454;13.862;2022-07-30T00:47:42;21.50;53.80
18047;DHT22;9148;51.454;13.862;2022-07-30T00:50:09;21.60;53.80
18047;DHT22;9148;51.454;13.862;2022-07-30T00:52:37;21.50;53.90
18047;DHT22;9148;51.454;13.862;2022-07-30T00:55:04;21.50;53.90
18047;DHT22;9148;51.454;13.862;2022-07-30T00:57:31;21.50;53.90
18047;DHT22;9148;51.454;13.862;2022-07-30T00:59:57;21.50;54.00
18047;DHT22;9148;51.454;13.862;2022-07-30T01:02:23;21.50;54.10
18047;DHT22;9148;51.454;13.862;2022-07-30T01:04:48;21.40;54.20
18047;DHT22;9148;51.454;13.862;2022-07-30T01:07:14;21.40;54.20
18047;DHT22;9148;51.454;13.862;2022-07-30T01:09:40;21.40;54.30
18047;DHT22;9148;51.454;13.862;2022-07-30T01:12:06;21.40;54.40
18047;DHT22;9148;51.454;13.862;2022-07-30T01:14:35;21.40;54.50
18047;DHT22;9148;51.454;13.862;2022-07-30T01:17:02;21.30;54.50
18047;DHT22;9148;51.454;13.862;2022-07-30T01:19:32;21.30;54.50
18047;DHT22;9148;51.454;13.862;2022-07-30T01:22:28;21.30;54.70
18047;DHT22;9148;51.454;13.862;2022-07-30T01:27:53;21.20;55.20
18047;DHT22;9148;51.454;13.862;2022-07-30T01:30:25;21.10;55.20
18047;DHT22;9148;51.454;13.862;2022-07-30T01:32:54;21.10;55.30
18047;DHT22;9148;51.454;13.862;2022-07-30T01:35:23;21.00;55.40
18047;DHT22;9148;51.454;13.862;2022-07-30T01:37:52;21.00;55.50
18047;DHT22;9148;51.454;13.862;2022-07-30T01:40:19;21.00;55.70
18047;DHT22;9148;51.454;13.862;2022-07-30T01:42:47;20.90;55.80
18047;DHT22;9148;51.454;13.862;2022-07-30T01:45:14;20.90;55.80
18047;DHT22;9148;51.454;13.862;2022-07-30T01:47:42;20.90;55.70
18047;DHT22;9148;51.454;13.862;2022-07-30T01:50:11;20.90;55.80
18047;DHT22;9148;51.454;13.862;2022-07-30T01:52:40;20.80;55.90
18047;DHT22;9148;51.454;13.862;2022-07-30T01:55:09;20.80;56.00
18047;DHT22;9148;51.454;13.862;2022-07-30T01:57:37;20.80;56.00
18047;DHT22;9148;51.454;13.862;2022-07-30T02:00:05;20.80;56.10
18047;DHT22;9148;51.454;13.862;2022-07-30T02:02:34;20.80;56.20
18047;DHT22;9148;51.454;13.862;2022-07-30T02:05:01;20.80;56.20
18047;DHT22;9148;51.454;13.862;2022-07-30T02:07:33;20.80;56.30
18047;DHT22;9148;51.454;13.862;2022-07-30T02:12:45;20.70;56.30
18047;DHT22;9148;51.454;13.862;2022-07-30T02:15:23;20.70;56.30
18047;DHT22;9148;51.454;13.862;2022-07-30T02:17:59;20.70;56.40
18047;DHT22;9148;51.454;13.862;2022-07-30T02:20:29;20.70;56.40
18047;DHT22;9148;51.454;13.862;2022-07-30T02:23:06;20.60;56.40
18047;DHT22;9148;51.454;13.862;2022-07-30T02:25:39;20.60;56.50
18047;DHT22;9148;51.454;13.862;2022-07-30T02:28:10;20.60;56.50
18047;DHT22;9148;51.454;13.862;2022-07-30T02:30:46;20.60;56.60
18047;DHT22;9148;51.454;13.862;2022-07-30T02:33:14;20.60;56.60
18047;DHT22;9148;51.454;13.862;2022-07-30T02:35:41;20.60;56.70
18047;DHT22;9148;51.454;13.862;2022-07-30T02:38:09;20.50;56.70
18047;DHT22;9148;51.454;13.862;2022-07-30T02:40:40;20.50;56.90
18047;DHT22;9148;51.454;13.862;2022-07-30T02:43:06;20.50;57.00
18047;DHT22;9148;51.454;13.862;2022-07-30T02:45:32;20.50;57.00
18047;DHT22;9148;51.454;13.862;2022-07-30T02:48:05;20.50;57.10
18047;DHT22;9148;51.454;13.862;2022-07-30T02:50:32;20.50;57.30
18047;DHT22;9148;51.454;13.862;2022-07-30T02:52:59;20.40;57.20
18047;DHT22;9148;51.454;13.862;2022-07-30T02:55:27;20.40;57.30
18047;DHT22;9148;51.454;13.862;2022-07-30T02:57:55;20.40;57.40
18047;DHT22;9148;51.454;13.862;2022-07-30T03:00:23;20.40;57.50
18047;DHT22;9148;51.454;13.862;2022-07-30T03:02:51;20.40;57.60
18047;DHT22;9148;51.454;13.862;2022-07-30T03:05:17;20.40;57.70
18047;DHT22;9148;51.454;13.862;2022-07-30T03:07:44;20.40;57.80
18047;DHT22;9148;51.454;13.862;2022-07-30T03:10:11;20.40;57.90
18047;DHT22;9148;51.454;13.862;2022-07-30T03:12:39;20.40;58.00
18047;DHT22;9148;51.454;13.862;2022-07-30T03:15:06;20.30;58.10
18047;DHT22;9148;51.454;13.862;2022-07-30T03:17:45;20.30;58.20
18047;DHT22;9148;51.454;13.862;2022-07-30T03:20:17;20.30;58.30
18047;DHT22;9148;51.454;13.862;2022-07-30T03:22:50;20.30;58.50
18047;DHT22;9148;51.454;13.862;2022-07-30T03:25:21;20.30;58.60
18047;DHT22;9148;51.454;13.862;2022-07-30T03:27:50;20.30;58.60
18047;DHT22;9148;51.454;13.862;2022-07-30T03:30:16;20.20;58.70
18047;DHT22;9148;51.454;13.862;2022-07-30T03:32:42;20.20;58.90
18047;DHT22;9148;51.454;13.862;2022-07-30T03:35:09;20.20;59.00
18047;DHT22;9148;51.454;13.862;2022-07-30T03:37:36;20.10;59.30
18047;DHT22;9148;51.454;13.862;2022-07-30T03:40:05;20.10;59.50
18047;DHT22;9148;51.454;13.862;2022-07-30T03:42:32;20.00;59.60
18047;DHT22;9148;51.454;13.862;2022-07-30T03:45:02;20.00;59.70
18047;DHT22;9148;51.454;13.862;2022-07-30T03:47:31;19.90;59.80
18047;DHT22;9148;51.454;13.862;2022-07-30T03:49:58;19.90;59.90
18047;DHT22;9148;51.454;13.862;2022-07-30T03:52:25;19.90;60.00
18047;DHT22;9148;51.454;13.862;2022-07-30T03:54:52;19.90;60.20
18047;DHT22;9148;51.454;13.862;2022-07-30T03:57:18;19.90;60.20
18047;DHT22;9148;51.454;13.862;2022-07-30T03:59:44;19.80;60.20
18047;DHT22;9148;51.454;13.862;2022-07-30T04:02:11;19.80;60.40
18047;DHT22;9148;51.454;13.862;2022-07-30T04:04:42;19.80;60.40
18047;DHT22;9148;51.454;13.862;2022-07-30T04:07:08;19.80;60.60
18047;DHT22;9148;51.454;13.862;2022-07-30T04:09:34;19.80;60.80
18047;DHT22;9148;51.454;13.862;2022-07-30T04:12:00;19.80;60.90
18047;DHT22;9148;51.454;13.862;2022-07-30T04:14:26;19.80;60.80
18047;DHT22;9148;51.454;13.862;2022-07-30T04:19:31;19.80;60.80
18047;DHT22;9148;51.454;13.862;2022-07-30T04:22:01;19.80;60.80
18047;DHT22;9148;51.454;13.862;2022-07-30T04:24:28;19.80;60.80
18047;DHT22;9148;51.454;13.862;2022-07-30T04:26:57;19.80;60.90
18047;DHT22;9148;51.454;13.862;2022-07-30T04:29:24;19.80;61.00
18047;DHT22;9148;51.454;13.862;2022-07-30T04:31:52;19.80;61.10
18047;DHT22;9148;51.454;13.862;2022-07-30T04:34:18;19.80;61.20
18047;DHT22;9148;51.454;13.862;2022-07-30T04:36:44;19.80;61.30
18047;DHT22;9148;51.454;13.862;2022-07-30T04:39:11;19.80;61.30
18047;DHT22;9148;51.454;13.862;2022-07-30T04:41:37;19.80;61.30
18047;DHT22;9148;51.454;13.862;2022-07-30T04:44:04;19.80;61.30
18047;DHT22;9148;51.454;13.862;2022-07-30T04:46:30;19.80;61.30
18047;DHT22;9148;51.454;13.862;2022-07-30T04:48:56;19.80;61.40
18047;DHT22;9148;51.454;13.862;2022-07-30T04:51:26;19.80;61.50
18047;DHT22;9148;51.454;13.862;2022-07-30T04:53:55;19.80;61.60
18047;DHT22;9148;51.454;13.862;2022-07-30T04:56:22;19.90;61.70
18047;DHT22;9148;51.454;13.862;2022-07-30T04:58:49;19.90;61.70
18047;DHT22;9148;51.454;13.862;2022-07-30T05:01:22;19.90;61.80
18047;DHT22;9148;51.454;13.862;2022-07-30T05:03:51;19.90;61.90
18047;DHT22;9148;51.454;13.862;2022-07-30T05:06:19;19.90;61.90
18047;DHT22;9148;51.454;13.862;2022-07-30T05:08:45;19.90;61.90
18047;DHT22;9148;51.454;13.862;2022-07-30T05:11:14;19.90;61.90
18047;DHT22;9148;51.454;13.862;2022-07-30T05:13:42;19.90;61.90
18047;DHT22;9148;51.454;13.862;2022-07-30T05:16:09;20.00;62.00
18047;DHT22;9148;51.454;13.862;2022-07-30T05:18:36;20.00;61.90
18047;DHT22;9148;51.454;13.862;2022-07-30T05:21:03;20.00;61.90
18047;DHT22;9148;51.454;13.862;2022-07-30T05:23:29;20.10;62.00
18047;DHT22;9148;51.454;13.862;2022-07-30T05:25:55;20.10;62.00
18047;DHT22;9148;51.454;13.862;2022-07-30T05:28:20;20.10;62.00
18047;DHT22;9148;51.454;13.862;2022-07-30T05:30:47;20.20;62.30
18047;DHT22;9148;51.454;13.862;2022-07-30T05:33:13;20.20;62.90
18047;DHT22;9148;51.454;13.862;2022-07-30T05:35:39;20.10;63.20
18047;DHT22;9148;51.454;13.862;2022-07-30T05:38:04;20.10;63.10
18047;DHT22;9148;51.454;13.862;2022-07-30T05:40:30;20.00;63.50
18047;DHT22;9148;51.454;13.862;2022-07-30T05:42:56;20.00;63.80
18047;DHT22;9148;51.454;13.862;2022-07-30T05:45:21;19.90;65.20
18047;DHT22;9148;51.454;13.862;2022-07-30T05:47:47;19.90;66.20
18047;DHT22;9148;51.454;13.862;2022-07-30T05:50:13;19.70;67.10
18047;DHT22;9148;51.454;13.862;2022-07-30T05:52:38;19.60;67.70
18047;DHT22;9148;51.454;13.862;2022-07-30T05:55:05;19.60;68.30
18047;DHT22;9148;51.454;13.862;2022-07-30T05:57:34;19.50;68.80
18047;DHT22;9148;51.454;13.862;2022-07-30T06:00:01;19.40;69.10
18047;DHT22;9148;51.454;13.862;2022-07-30T06:02:30;19.40;69.70
18047;DHT22;9148;51.454;13.862;2022-07-30T06:04:55;19.40;70.40
18047;DHT22;9148;51.454;13.862;2022-07-30T06:07:21;19.40;71.20
18047;DHT22;9148;51.454;13.862;2022-07-30T06:09:47;19.40;71.60
18047;DHT22;9148;51.454;13.862;2022-07-30T06:12:13;19.30;71.90
18047;DHT22;9148;51.454;13.862;2022-07-30T06:14:38;19.30;72.60
18047;DHT22;9148;51.454;13.862;2022-07-30T06:17:04;19.30;73.50
18047;DHT22;9148;51.454;13.862;2022-07-30T06:19:30;19.20;74.10
18047;DHT22;9148;51.454;13.862;2022-07-30T06:21:56;19.20;74.90
18047;DHT22;9148;51.454;13.862;2022-07-30T06:24:21;19.20;75.50
18047;DHT22;9148;51.454;13.862;2022-07-30T06:26:47;19.20;76.80
18047;DHT22;9148;51.454;13.862;2022-07-30T06:29:13;19.20;77.40
18047;DHT22;9148;51.454;13.862;2022-07-30T06:31:38;19.10;78.10
18047;DHT22;9148;51.454;13.862;2022-07-30T06:34:06;19.10;78.80
18047;DHT22;9148;51.454;13.862;2022-07-30T06:36:31;19.10;80.00
18047;DHT22;9148;51.454;13.862;2022-07-30T06:38:57;19.10;81.20
18047;DHT22;9148;51.454;13.862;2022-07-30T06:41:23;19.00;83.30
18047;DHT22;9148;51.454;13.862;2022-07-30T06:43:49;19.00;84.90
18047;DHT22;9148;51.454;13.862;2022-07-30T06:46:15;18.90;85.90
18047;DHT22;9148;51.454;13.862;2022-07-30T06:48:42;18.80;89.00
18047;DHT22;9148;51.454;13.862;2022-07-30T06:51:08;18.80;90.10
18047;DHT22;9148;51.454;13.862;2022-07-30T06:53:34;18.80;90.80
18047;DHT22;9148;51.454;13.862;2022-07-30T06:55:59;18.70;91.70
18047;DHT22;9148;51.454;13.862;2022-07-30T06:58:25;18.70;92.60
18047;DHT22;9148;51.454;13.862;2022-07-30T07:00:51;18.60;93.60
18047;DHT22;9148;51.454;13.862;2022-07-30T07:03:16;18.60;93.90
18047;DHT22;9148;51.454;13.862;2022-07-30T07:05:42;18.60;94.50
18047;DHT22;9148;51.454;13.862;2022-07-30T07:08:08;18.50;95.40
18047;DHT22;9148;51.454;13.862;2022-07-30T07:10:33;18.50;96.20
18047;DHT22;9148;51.454;13.862;2022-07-30T07:12:59;18.40;97.10
18047;DHT22;9148;51.454;13.862;2022-07-30T07:15:25;18.30;97.50
18047;DHT22;9148;51.454;13.862;2022-07-30T07:17:51;18.30;98.10
18047;DHT22;9148;51.454;13.862;2022-07-30T07:20:17;18.30;98.60
18047;DHT22;9148;51.454;13.862;2022-07-30T07:22:43;18.30;99.10
18047;DHT22;9148;51.454;13.862;2022-07-30T07:25:09;18.30;99.60
18047;DHT22;9148;51.454;13.862;2022-07-30T07:27:36;18.30;99.90
18047;DHT22;9148;51.454;13.862;2022-07-30T07:30:03;18.30;99.90
18047;DHT22;9148;51.454;13.862;2022-07-30T07:32:29;18.30;99.90
18047;DHT22;9148;51.454;13.862;2022-07-30T07:34:55;18.30;99.90
18047;DHT22;9148;51.454;13.862;2022-07-30T07:37:20;18.30;99.90
18047;DHT22;9148;51.454;13.862;2022-07-30T07:39:46;18.30;99.90
18047;DHT22;9148;51.454;13.862;2022-07-30T07:42:12;18.30;99.90
18047;DHT22;9148;51.454;13.862;2022-07-30T07:44:37;18.30;99.90
18047;DHT22;9148;51.454;13.862;2022-07-30T07:47:03;18.30;99.90
18047;DHT22;9148;51.454;13.862;2022-07-30T07:49:29;18.30;99.90
18047;DHT22;9148;51.454;13.862;2022-07-30T07:51:55;18.40;99.90
18047;DHT22;9148;51.454;13.862;2022-07-30T07:54:20;18.60;99.90
18047;DHT22;9148;51.454;13.862;2022-07-30T07:56:46;18.40;99.90
18047;DHT22;9148;51.454;13.862;2022-07-30T07:59:13;18.50;99.90
18047;DHT22;9148;51.454;13.862;2022-07-30T08:01:39;18.60;99.90
18047;DHT22;9148;51.454;13.862;2022-07-30T08:04:04;18.60;99.90
18047;DHT22;9148;51.454;13.862;2022-07-30T08:06:30;18.60;99.90
18047;DHT22;9148;51.454;13.862;2022-07-30T08:08:56;18.60;99.90
18047;DHT22;9148;51.454;13.862;2022-07-30T08:11:22;18.60;99.90
18047;DHT22;9148;51.454;13.862;2022-07-30T08:13:47;18.60;99.90
18047;DHT22;9148;51.454;13.862;2022-07-30T08:16:13;18.60;99.90
18047;DHT22;9148;51.454;13.862;2022-07-30T08:18:39;18.60;99.90
18047;DHT22;9148;51.454;13.862;2022-07-30T08:21:05;18.60;99.90
18047;DHT22;9148;51.454;13.862;2022-07-30T08:23:32;18.70;99.90
18047;DHT22;9148;51.454;13.862;2022-07-30T08:25:58;18.70;99.90
18047;DHT22;9148;51.454;13.862;2022-07-30T08:28:24;18.80;99.90
18047;DHT22;9148;51.454;13.862;2022-07-30T08:30:50;18.90;99.90
18047;DHT22;9148;51.454;13.862;2022-07-30T08:33:16;18.90;99.90
18047;DHT22;9148;51.454;13.862;2022-07-30T08:35:42;19.00;99.90
18047;DHT22;9148;51.454;13.862;2022-07-30T08:38:08;19.00;99.90
18047;DHT22;9148;51.454;13.862;2022-07-30T08:40:34;19.10;99.90
18047;DHT22;9148;51.454;13.862;2022-07-30T08:43:02;19.10;99.90
18047;DHT22;9148;51.454;13.862;2022-07-30T08:45:30;19.20;99.90
18047;DHT22;9148;51.454;13.862;2022-07-30T08:47:59;19.30;99.90
18047;DHT22;9148;51.454;13.862;2022-07-30T08:50:26;19.30;99.90
18047;DHT22;9148;51.454;13.862;2022-07-30T08:52:55;19.40;99.90
18047;DHT22;9148;51.454;13.862;2022-07-30T08:55:22;19.40;99.90
18047;DHT22;9148;51.454;13.862;2022-07-30T08:57:48;19.50;99.90
18047;DHT22;9148;51.454;13.862;2022-07-30T09:00:15;19.50;99.90
18047;DHT22;9148;51.454;13.862;2022-07-30T09:02:41;19.60;99.90
18047;DHT22;9148;51.454;13.862;2022-07-30T09:05:08;19.60;99.90
18047;DHT22;9148;51.454;13.862;2022-07-30T09:07:35;19.70;99.90
18047;DHT22;9148;51.454;13.862;2022-07-30T09:10:05;19.80;99.90
18047;DHT22;9148;51.454;13.862;2022-07-30T09:12:36;19.90;99.90
18047;DHT22;9148;51.454;13.862;2022-07-30T09:15:12;19.90;99.90
18047;DHT22;9148;51.454;13.862;2022-07-30T09:17:55;20.10;99.90
18047;DHT22;9148;51.454;13.862;2022-07-30T09:20:29;20.20;99.90
18047;DHT22;9148;51.454;13.862;2022-07-30T09:23:03;20.40;99.90
18047;DHT22;9148;51.454;13.862;2022-07-30T09:25:43;20.60;99.90
18047;DHT22;9148;51.454;13.862;2022-07-30T09:28:11;20.70;99.90
18047;DHT22;9148;51.454;13.862;2022-07-30T09:30:51;20.90;99.90
18047;DHT22;9148;51.454;13.862;2022-07-30T09:33:37;21.00;99.90
18047;DHT22;9148;51.454;13.862;2022-07-30T09:36:09;21.30;99.90
18047;DHT22;9148;51.454;13.862;2022-07-30T09:38:50;21.60;99.90
18047;DHT22;9148;51.454;13.862;2022-07-30T09:41:19;21.80;99.90
18047;DHT22;9148;51.454;13.862;2022-07-30T09:44:04;22.10;99.90
18047;DHT22;9148;51.454;13.862;2022-07-30T09:46:47;22.30;99.90
18047;DHT22;9148;51.454;13.862;2022-07-30T09:49:24;22.50;99.90
18047;DHT22;9148;51.454;13.862;2022-07-30T09:51:52;22.80;99.90
18047;DHT22;9148;51.454;13.862;2022-07-30T09:54:18;22.90;99.90
18047;DHT22;9148;51.454;13.862;2022-07-30T09:56:44;23.10;99.90
18047;DHT22;9148;51.454;13.862;2022-07-30T09:59:25;23.20;99.50
18047;DHT22;9148;51.454;13.862;2022-07-30T10:01:53;23.40;98.80
18047;DHT22;9148;51.454;13.862;2022-07-30T10:04:28;23.50;98.30
18047;DHT22;9148;51.454;13.862;2022-07-30T10:06:56;23.60;97.80
18047;DHT22;9148;51.454;13.862;2022-07-30T10:09:34;23.70;97.20
18047;DHT22;9148;51.454;13.862;2022-07-30T10:12:02;23.80;96.50
18047;DHT22;9148;51.454;13.862;2022-07-30T10:14:32;24.00;95.90
18047;DHT22;9148;51.454;13.862;2022-07-30T10:17:00;24.00;95.20
18047;DHT22;9148;51.454;13.862;2022-07-30T10:19:27;24.10;94.70
18047;DHT22;9148;51.454;13.862;2022-07-30T10:21:53;24.20;94.10
18047;DHT22;9148;51.454;13.862;2022-07-30T10:24:23;24.20;93.60
18047;DHT22;9148;51.454;13.862;2022-07-30T10:26:50;24.30;93.20
18047;DHT22;9148;51.454;13.862;2022-07-30T10:29:19;24.30;92.40
18047;DHT22;9148;51.454;13.862;2022-07-30T10:31:47;24.40;91.90
18047;DHT22;9148;51.454;13.862;2022-07-30T10:34:15;24.40;91.10
18047;DHT22;9148;51.454;13.862;2022-07-30T10:36:50;24.40;90.80
18047;DHT22;9148;51.454;13.862;2022-07-30T10:39:22;24.50;90.40
18047;DHT22;9148;51.454;13.862;2022-07-30T10:42:09;24.50;90.10
18047;DHT22;9148;51.454;13.862;2022-07-30T10:47:32;24.70;88.10
18047;DHT22;9148;51.454;13.862;2022-07-30T10:50:09;24.60;87.80
18047;DHT22;9148;51.454;13.862;2022-07-30T10:55:20;24.80;86.90
18047;DHT22;9148;51.454;13.862;2022-07-30T10:58:05;24.90;85.60
18047;DHT22;9148;51.454;13.862;2022-07-30T11:00:34;25.00;84.80
18047;DHT22;9148;51.454;13.862;2022-07-30T11:03:28;25.00;84.30
18047;DHT22;9148;51.454;13.862;2022-07-30T11:08:40;25.20;83.10
18047;DHT22;9148;51.454;13.862;2022-07-30T11:13:59;25.60;82.20
18047;DHT22;9148;51.454;13.862;2022-07-30T11:19:14;26.00;80.30
18047;DHT22;9148;51.454;13.862;2022-07-30T11:22:22;26.30;79.40
18047;DHT22;9148;51.454;13.862;2022-07-30T11:24:48;26.60;78.30
18047;DHT22;9148;51.454;13.862;2022-07-30T11:27:43;26.80;76.50
18047;DHT22;9148;51.454;13.862;2022-07-30T11:32:46;26.90;73.30
18047;DHT22;9148;51.454;13.862;2022-07-30T11:35:24;26.90;72.80
18047;DHT22;9148;51.454;13.862;2022-07-30T11:37:55;26.90;71.80
18047;DHT22;9148;51.454;13.862;2022-07-30T11:40:21;27.00;70.30
18047;DHT22;9148;51.454;13.862;2022-07-30T11:42:48;27.10;69.10
18047;DHT22;9148;51.454;13.862;2022-07-30T11:47:55;27.20;67.70
18047;DHT22;9148;51.454;13.862;2022-07-30T11:50:31;27.20;66.20
18047;DHT22;9148;51.454;13.862;2022-07-30T11:53:01;27.10;65.40
18047;DHT22;9148;51.454;13.862;2022-07-30T11:55:33;27.10;64.90
18047;DHT22;9148;51.454;13.862;2022-07-30T11:58:03;27.10;64.90
18047;DHT22;9148;51.454;13.862;2022-07-30T12:00:37;27.20;64.40
18047;DHT22;9148;51.454;13.862;2022-07-30T12:03:18;27.20;63.70
18047;DHT22;9148;51.454;13.862;2022-07-30T12:05:46;27.10;63.00
18047;DHT22;9148;51.454;13.862;2022-07-30T12:08:14;27.00;62.70
18047;DHT22;9148;51.454;13.862;2022-07-30T12:10:41;26.90;62.90
18047;DHT22;9148;51.454;13.862;2022-07-30T12:13:12;26.90;63.00
18047;DHT22;9148;51.454;13.862;2022-07-30T12:15:44;27.00;62.70
18047;DHT22;9148;51.454;13.862;2022-07-30T12:18:11;27.00;62.70
18047;DHT22;9148;51.454;13.862;2022-07-30T12:20:39;27.10;62.20
18047;DHT22;9148;51.454;13.862;2022-07-30T12:23:12;27.20;61.30
18047;DHT22;9148;51.454;13.862;2022-07-30T12:25:40;27.20;60.90
18047;DHT22;9148;51.454;13.862;2022-07-30T12:28:07;27.30;60.90
18047;DHT22;9148;51.454;13.862;2022-07-30T12:30:37;27.30;60.20
18047;DHT22;9148;51.454;13.862;2022-07-30T12:33:07;27.40;59.80
18047;DHT22;9148;51.454;13.862;2022-07-30T12:35:46;27.60;59.40
18047;DHT22;9148;51.454;13.862;2022-07-30T12:38:17;27.60;59.10
18047;DHT22;9148;51.454;13.862;2022-07-30T12:41:01;27.70;58.20
18047;DHT22;9148;51.454;13.862;2022-07-30T12:46:18;27.80;56.60
18047;DHT22;9148;51.454;13.862;2022-07-30T12:48:57;27.80;55.60
18047;DHT22;9148;51.454;13.862;2022-07-30T12:51:32;27.70;55.60
18047;DHT22;9148;51.454;13.862;2022-07-30T12:54:00;27.70;55.10
18047;DHT22;9148;51.454;13.862;2022-07-30T12:56:37;27.60;54.50
18047;DHT22;9148;51.454;13.862;2022-07-30T12:59:04;27.60;54.40
18047;DHT22;9148;51.454;13.862;2022-07-30T13:01:44;27.70;54.40
18047;DHT22;9148;51.454;13.862;2022-07-30T13:04:11;27.80;54.10
18047;DHT22;9148;51.454;13.862;2022-07-30T13:06:38;27.90;54.00
18047;DHT22;9148;51.454;13.862;2022-07-30T13:09:06;28.00;53.80
18047;DHT22;9148;51.454;13.862;2022-07-30T13:11:39;28.10;53.50
18047;DHT22;9148;51.454;13.862;2022-07-30T13:14:07;28.20;52.90
18047;DHT22;9148;51.454;13.862;2022-07-30T13:16:35;28.30;52.40
18047;DHT22;9148;51.454;13.862;2022-07-30T13:19:09;28.40;52.20
18047;DHT22;9148;51.454;13.862;2022-07-30T13:21:36;28.50;52.00
18047;DHT22;9148;51.454;13.862;2022-07-30T13:24:02;28.50;50.50
18047;DHT22;9148;51.454;13.862;2022-07-30T13:26:28;28.40;50.80
18047;DHT22;9148;51.454;13.862;2022-07-30T13:28:58;28.30;51.10
18047;DHT22;9148;51.454;13.862;2022-07-30T13:31:24;28.20;51.40
18047;DHT22;9148;51.454;13.862;2022-07-30T13:33:50;28.20;51.50
18047;DHT22;9148;51.454;13.862;2022-07-30T13:36:16;28.20;51.70
18047;DHT22;9148;51.454;13.862;2022-07-30T13:38:43;28.30;51.70
18047;DHT22;9148;51.454;13.862;2022-07-30T13:41:09;28.30;51.30
18047;DHT22;9148;51.454;13.862;2022-07-30T13:43:35;28.30;50.30
18047;DHT22;9148;51.454;13.862;2022-07-30T13:46:02;28.20;50.50
18047;DHT22;9148;51.454;13.862;2022-07-30T13:48:28;28.00;50.20
18047;DHT22;9148;51.454;13.862;2022-07-30T13:50:54;27.90;49.50
18047;DHT22;9148;51.454;13.862;2022-07-30T13:53:20;27.70;50.00
18047;DHT22;9148;51.454;13.862;2022-07-30T13:55:46;27.50;50.10
18047;DHT22;9148;51.454;13.862;2022-07-30T13:58:12;27.30;50.50
18047;DHT22;9148;51.454;13.862;2022-07-30T14:00:38;27.10;50.80
18047;DHT22;9148;51.454;13.862;2022-07-30T14:03:08;27.00;51.10
18047;DHT22;9148;51.454;13.862;2022-07-30T14:05:35;26.90;51.40
18047;DHT22;9148;51.454;13.862;2022-07-30T14:08:03;26.80;51.60
18047;DHT22;9148;51.454;13.862;2022-07-30T14:10:30;26.70;51.30
18047;DHT22;9148;51.454;13.862;2022-07-30T14:12:56;26.60;51.40
18047;DHT22;9148;51.454;13.862;2022-07-30T14:15:26;26.40;51.50
18047;DHT22;9148;51.454;13.862;2022-07-30T14:17:55;26.20;51.90
18047;DHT22;9148;51.454;13.862;2022-07-30T14:20:21;26.00;52.80
18047;DHT22;9148;51.454;13.862;2022-07-30T14:22:48;25.80;53.30
18047;DHT22;9148;51.454;13.862;2022-07-30T14:25:13;25.70;53.80
18047;DHT22;9148;51.454;13.862;2022-07-30T14:27:39;25.60;54.20
18047;DHT22;9148;51.454;13.862;2022-07-30T14:30:07;25.60;54.80
18047;DHT22;9148;51.454;13.862;2022-07-30T14:32:34;25.50;55.50
18047;DHT22;9148;51.454;13.862;2022-07-30T14:35:01;25.40;56.10
18047;DHT22;9148;51.454;13.862;2022-07-30T14:37:26;25.30;56.40
18047;DHT22;9148;51.454;13.862;2022-07-30T14:39:52;25.20;57.00
18047;DHT22;9148;51.454;13.862;2022-07-30T14:42:18;25.00;57.10
18047;DHT22;9148;51.454;13.862;2022-07-30T14:44:45;24.90;57.60
18047;DHT22;9148;51.454;13.862;2022-07-30T14:47:11;24.80;58.10
18047;DHT22;9148;51.454;13.862;2022-07-30T14:49:38;24.70;58.80
18047;DHT22;9148;51.454;13.862;2022-07-30T14:52:04;24.70;58.80
18047;DHT22;9148;51.454;13.862;2022-07-30T14:54:30;24.70;59.00
18047;DHT22;9148;51.454;13.862;2022-07-30T14:56:56;24.80;58.90
18047;DHT22;9148;51.454;13.862;2022-07-30T14:59:22;25.00;58.70
18047;DHT22;9148;51.454;13.862;2022-07-30T15:01:47;25.20;58.30
18047;DHT22;9148;51.454;13.862;2022-07-30T15:04:14;25.50;57.40
18047;DHT22;9148;51.454;13.862;2022-07-30T15:06:39;25.70;57.00
18047;DHT22;9148;51.454;13.862;2022-07-30T15:09:06;25.90;56.70
18047;DHT22;9148;51.454;13.862;2022-07-30T15:11:32;26.20;56.30
18047;DHT22;9148;51.454;13.862;2022-07-30T15:13:58;26.30;55.30
18047;DHT22;9148;51.454;13.862;2022-07-30T15:16:24;26.40;55.30
18047;DHT22;9148;51.454;13.862;2022-07-30T15:18:50;26.40;55.30
18047;DHT22;9148;51.454;13.862;2022-07-30T15:21:15;26.50;54.80
18047;DHT22;9148;51.454;13.862;2022-07-30T15:23:41;26.40;54.30
18047;DHT22;9148;51.454;13.862;2022-07-30T15:26:07;26.40;54.60
18047;DHT22;9148;51.454;13.862;2022-07-30T15:28:32;26.40;54.70
18047;DHT22;9148;51.454;13.862;2022-07-30T15:30:58;26.50;54.60
18047;DHT22;9148;51.454;13.862;2022-07-30T15:33:24;26.50;55.10
18047;DHT22;9148;51.454;13.862;2022-07-30T15:35:49;26.50;54.50
18047;DHT22;9148;51.454;13.862;2022-07-30T15:38:15;26.40;54.60
18047;DHT22;9148;51.454;13.862;2022-07-30T15:40:41;26.30;54.70
18047;DHT22;9148;51.454;13.862;2022-07-30T15:43:08;26.20;54.70
18047;DHT22;9148;51.454;13.862;2022-07-30T15:45:34;26.10;54.70
18047;DHT22;9148;51.454;13.862;2022-07-30T15:47:59;25.80;54.40
18047;DHT22;9148;51.454;13.862;2022-07-30T15:50:25;25.70;54.60
18047;DHT22;9148;51.454;13.862;2022-07-30T15:52:51;25.60;54.70
18047;DHT22;9148;51.454;13.862;2022-07-30T15:55:16;25.50;55.20
18047;DHT22;9148;51.454;13.862;2022-07-30T15:57:42;25.40;55.10
18047;DHT22;9148;51.454;13.862;2022-07-30T16:00:08;25.30;55.10
18047;DHT22;9148;51.454;13.862;2022-07-30T16:02:35;25.20;54.60
18047;DHT22;9148;51.454;13.862;2022-07-30T16:05:01;25.10;55.80
18047;DHT22;9148;51.454;13.862;2022-07-30T16:07:27;24.90;56.50